Time;durP1;ratioP1;P1;durP2;ratioP2;P2;SDS_P1;SDS_P2;PMS_P1;PMS_P2;Temp;Humidity;BMP_temperature;BMP_pressure;BME280_temperature;BME280_humidity;BME280_pressure;Samples;Min_cycle;Max_cycle;Signal;HPM_P1;HPM_P2
2023/10/06 00:01:21;;;;;;;7.13;5.50;;;;;;;;;;4995459;28;20971;-61
2023/10/06 00:03:57;;;;;;;7.57;5.70;;;;;;;;;;4995299;28;20426;-61
2023/10/06 00:06:27;;;;;;;7.83;6.10;;;;;;;;;;4995013;28;20910;-62
2023/10/06 00:08:54;;;;;;;8.63;5.90;;;;;;;;;;4995179;28;20457;-61
2023/10/06 00:11:28;;;;;;;5.13;4.70;;;;;;;;;;4994845;28;20437;-62
2023/10/06 00:14:00;;;;;;;9.97;5.47;;;;;;;;;;4994992;28;20413;-62
2023/10/06 00:16:27;;;;;;;9.83;5.60;;;;;;;;;;4994697;28;20508;-61
2023/10/06 00:18:56;;;;;;;6.70;5.67;;;;;;;;;;4994642;28;20921;-62
2023/10/06 00:21:22;;;;;;;6.67;5.90;;;;;;;;;;4995018;28;20916;-61
2023/10/06 00:23:49;;;;;;;11.03;5.80;;;;;;;;;;4994395;28;20417;-62
2023/10/06 00:26:21;;;;;;;13.83;5.67;;;;;;;;;;4994975;28;20441;-61
2023/10/06 00:28:47;;;;;;;7.90;6.10;;;;;;;;;;4994127;28;20982;-62
2023/10/06 00:31:15;;;;;;;7.10;5.13;;;;;;;;;;4994663;28;20439;-61
2023/10/06 00:33:43;;;;;;;6.00;5.40;;;;;;;;;;4994720;28;20414;-61
2023/10/06 00:36:14;;;;;;;9.00;5.83;;;;;;;;;;4994343;28;20801;-61
2023/10/06 00:38:50;;;;;;;8.03;6.00;;;;;;;;;;4994421;28;20430;-61
2023/10/06 00:41:17;;;;;;;8.10;5.67;;;;;;;;;;4994613;28;20421;-61
2023/10/06 00:43:43;;;;;;;8.17;6.13;;;;;;;;;;4993748;28;20441;-62
2023/10/06 00:46:16;;;;;;;7.93;5.70;;;;;;;;;;4994490;28;20406;-61
2023/10/06 00:48:52;;;;;;;7.50;5.30;;;;;;;;;;4993865;28;20572;-63
2023/10/06 00:51:22;;;;;;;7.10;5.87;;;;;;;;;;4993015;28;20425;-61
2023/10/06 00:53:51;;;;;;;12.77;5.80;;;;;;;;;;4994074;28;20429;-61
2023/10/06 00:56:18;;;;;;;7.37;5.60;;;;;;;;;;4994542;28;20887;-61
2023/10/06 00:58:44;;;;;;;6.10;5.17;;;;;;;;;;4994371;28;20409;-61
2023/10/06 01:01:12;;;;;;;5.33;4.77;;;;;;;;;;4994090;28;20833;-61
2023/10/06 01:03:39;;;;;;;7.20;5.50;;;;;;;;;;4994081;28;20441;-66
2023/10/06 01:06:09;;;;;;;10.43;6.10;;;;;;;;;;4993756;28;20436;-62
2023/10/06 01:08:35;;;;;;;8.97;5.73;;;;;;;;;;4993574;28;21047;-62
2023/10/06 01:11:16;;;;;;;8.93;5.13;;;;;;;;;;4994045;28;20414;-63
2023/10/06 01:13:56;;;;;;;9.93;6.20;;;;;;;;;;4993591;28;20563;-62
2023/10/06 01:16:37;;;;;;;5.80;5.30;;;;;;;;;;4994065;28;20418;-61
2023/10/06 01:19:14;;;;;;;6.60;5.07;;;;;;;;;;4993592;28;21083;-62
2023/10/06 01:21:47;;;;;;;6.80;5.20;;;;;;;;;;4993062;28;20421;-61
2023/10/06 01:24:13;;;;;;;6.53;4.67;;;;;;;;;;4993906;28;20421;-62
2023/10/06 01:26:42;;;;;;;7.07;5.67;;;;;;;;;;4993667;28;20461;-62
2023/10/06 01:29:13;;;;;;;5.97;5.00;;;;;;;;;;4993495;28;20572;-61
2023/10/06 01:31:41;;;;;;;6.70;5.50;;;;;;;;;;4993657;28;20909;-62
2023/10/06 01:34:08;;;;;;;5.03;4.60;;;;;;;;;;4993171;28;20448;-62
2023/10/06 01:36:35;;;;;;;5.83;5.20;;;;;;;;;;4993563;28;20901;-61
2023/10/06 01:39:05;;;;;;;5.53;4.80;;;;;;;;;;4993982;28;20504;-61
2023/10/06 01:41:37;;;;;;;6.27;5.67;;;;;;;;;;4991808;28;20418;-61
2023/10/06 01:44:12;;;;;;;4.50;4.10;;;;;;;;;;4993342;28;20786;-61
2023/10/06 01:46:41;;;;;;;6.07;4.60;;;;;;;;;;4993115;28;20433;-61
2023/10/06 01:49:10;;;;;;;12.00;4.23;;;;;;;;;;4993275;28;20880;-62
2023/10/06 01:51:38;;;;;;;4.80;4.40;;;;;;;;;;4993245;28;20424;-62
2023/10/06 01:54:07;;;;;;;7.77;4.27;;;;;;;;;;4993196;28;20488;-61
2023/10/06 01:56:35;;;;;;;5.57;4.63;;;;;;;;;;4992672;28;20480;-62
2023/10/06 01:59:05;;;;;;;5.30;4.80;;;;;;;;;;4992840;28;20417;-62
2023/10/06 02:01:31;;;;;;;4.80;4.40;;;;;;;;;;4991974;28;20457;-62
2023/10/06 02:03:57;;;;;;;5.63;4.67;;;;;;;;;;4992905;28;20432;-61
2023/10/06 02:06:25;;;;;;;5.83;5.10;;;;;;;;;;4992667;28;20741;-61
2023/10/06 02:08:55;;;;;;;7.57;4.53;;;;;;;;;;4992688;28;20465;-62
2023/10/06 02:11:21;;;;;;;5.20;4.70;;;;;;;;;;4992641;28;20449;-62
2023/10/06 02:13:47;;;;;;;5.20;4.73;;;;;;;;;;4992885;28;20854;-62
2023/10/06 02:16:18;;;;;;;6.53;5.00;;;;;;;;;;4992848;28;20418;-65
2023/10/06 02:18:46;;;;;;;5.80;5.20;;;;;;;;;;4992716;28;20917;-61
2023/10/06 02:21:15;;;;;;;4.90;4.50;;;;;;;;;;4992472;28;20446;-62
2023/10/06 02:23:42;;;;;;;5.47;5.07;;;;;;;;;;4992962;28;20792;-62
2023/10/06 02:26:13;;;;;;;6.80;4.83;;;;;;;;;;4992185;28;20493;-62
2023/10/06 02:28:48;;;;;;;6.17;4.63;;;;;;;;;;4992826;28;20457;-62
2023/10/06 02:31:14;;;;;;;5.63;5.17;;;;;;;;;;4992155;28;20436;-62
2023/10/06 02:33:41;;;;;;;4.93;4.40;;;;;;;;;;4992983;28;20894;-61
2023/10/06 02:36:17;;;;;;;4.30;3.90;;;;;;;;;;4992693;28;20441;-62
2023/10/06 02:38:46;;;;;;;4.87;4.47;;;;;;;;;;4992521;28;20417;-62
2023/10/06 02:41:18;;;;;;;5.60;5.20;;;;;;;;;;4992275;28;20526;-72
2023/10/06 02:43:44;;;;;;;5.33;4.80;;;;;;;;;;4992870;28;20394;-62
2023/10/06 02:46:10;;;;;;;5.50;4.67;;;;;;;;;;4992382;28;20841;-61
2023/10/06 02:48:37;;;;;;;6.03;5.33;;;;;;;;;;4992416;28;20509;-62
2023/10/06 02:51:06;;;;;;;6.07;4.77;;;;;;;;;;4992216;28;20426;-62
2023/10/06 02:53:35;;;;;;;6.03;4.50;;;;;;;;;;4992269;28;20893;-61
2023/10/06 02:56:07;;;;;;;4.87;4.43;;;;;;;;;;4992161;28;20425;-61
2023/10/06 02:58:34;;;;;;;5.17;4.67;;;;;;;;;;4992505;28;20421;-62
2023/10/06 03:01:03;;;;;;;5.53;5.13;;;;;;;;;;4992273;28;20421;-61
2023/10/06 03:03:33;;;;;;;7.53;5.03;;;;;;;;;;4992398;28;20424;-61
2023/10/06 03:06:06;;;;;;;5.53;4.90;;;;;;;;;;4991282;28;20429;-61
2023/10/06 03:08:35;;;;;;;11.83;4.90;;;;;;;;;;4994807;28;20555;-62
2023/10/06 03:11:01;;;;;;;17.27;5.20;;;;;;;;;;4995959;28;20421;-62
2023/10/06 03:13:36;;;;;;;5.67;4.80;;;;;;;;;;4995929;28;20875;-62
2023/10/06 03:16:10;;;;;;;5.23;3.97;;;;;;;;;;4995555;28;20507;-62
2023/10/06 03:18:36;;;;;;;5.63;5.10;;;;;;;;;;4996342;28;20421;-61
2023/10/06 03:21:13;;;;;;;5.30;4.80;;;;;;;;;;4995741;28;20443;-61
2023/10/06 03:23:43;;;;;;;4.03;3.70;;;;;;;;;;4994615;28;20444;-61
2023/10/06 03:26:13;;;;;;;4.60;4.30;;;;;;;;;;4995882;28;20912;-61
2023/10/06 03:28:43;;;;;;;7.20;4.70;;;;;;;;;;4993824;28;20479;-61
2023/10/06 03:31:44;;;;;;;6.33;4.30;;;;;;;;;;4995750;28;20425;-61
2023/10/06 03:33:55;;;;;;;4.97;4.47;;;;;;;;;;4995174;28;20844;-61
2023/10/06 03:36:37;;;;;;;5.00;3.67;;;;;;;;;;4994190;28;20424;-61
2023/10/06 03:39:07;;;;;;;10.03;4.60;;;;;;;;;;4995192;28;20460;-62
2023/10/06 03:41:36;;;;;;;4.87;4.57;;;;;;;;;;4996258;28;20842;-62
2023/10/06 03:44:11;;;;;;;5.40;4.43;;;;;;;;;;4978367;28;20521;-63
2023/10/06 03:46:38;;;;;;;4.80;4.40;;;;;;;;;;4995368;28;20417;-61
2023/10/06 03:49:04;;;;;;;5.93;4.93;;;;;;;;;;4993716;28;20752;-62
2023/10/06 03:51:40;;;;;;;4.97;4.53;;;;;;;;;;4995246;28;20442;-62
2023/10/06 03:54:07;;;;;;;4.13;3.83;;;;;;;;;;4994198;28;20784;-62
2023/10/06 03:56:33;;;;;;;6.43;4.73;;;;;;;;;;4994283;28;20508;-62
2023/10/06 03:59:00;;;;;;;5.47;4.97;;;;;;;;;;4995036;28;20920;-62
2023/10/06 04:01:31;;;;;;;5.03;3.97;;;;;;;;;;4994728;28;20441;-62
2023/10/06 04:04:00;;;;;;;6.80;5.27;;;;;;;;;;4994945;28;20500;-62
2023/10/06 04:06:27;;;;;;;6.30;4.87;;;;;;;;;;4995340;28;20469;-61
2023/10/06 04:08:53;;;;;;;6.20;4.97;;;;;;;;;;4993472;28;20884;-62
2023/10/06 04:11:19;;;;;;;17.27;5.83;;;;;;;;;;4995020;28;20903;-62
2023/10/06 04:13:46;;;;;;;5.23;4.73;;;;;;;;;;4994572;28;20885;-62
2023/10/06 04:16:15;;;;;;;6.10;4.27;;;;;;;;;;4994563;28;20969;-62
2023/10/06 04:18:47;;;;;;;4.90;4.40;;;;;;;;;;4994752;28;20447;-62
2023/10/06 04:21:13;;;;;;;11.07;4.93;;;;;;;;;;4994865;28;20483;-62
2023/10/06 04:23:42;;;;;;;5.30;4.80;;;;;;;;;;4994738;28;20418;-62
2023/10/06 04:26:09;;;;;;;6.03;5.17;;;;;;;;;;4993332;28;20468;-62
2023/10/06 04:28:35;;;;;;;5.37;4.70;;;;;;;;;;4994401;28;20457;-62
2023/10/06 04:31:01;;;;;;;5.50;5.00;;;;;;;;;;4994615;28;20418;-62
2023/10/06 04:33:30;;;;;;;5.70;4.67;;;;;;;;;;4994517;28;20483;-61
2023/10/06 04:35:56;;;;;;;5.40;4.87;;;;;;;;;;4994319;28;20918;-61
2023/10/06 04:38:23;;;;;;;5.67;5.17;;;;;;;;;;4994530;28;20442;-61
2023/10/06 04:40:49;;;;;;;4.87;4.47;;;;;;;;;;4994362;28;20516;-61
2023/10/06 04:43:18;;;;;;;4.90;4.47;;;;;;;;;;4994746;28;20472;-61
2023/10/06 04:45:47;;;;;;;4.37;4.07;;;;;;;;;;4994073;28;20421;-62
2023/10/06 04:48:13;;;;;;;8.53;5.23;;;;;;;;;;4993799;28;20476;-62
2023/10/06 04:50:39;;;;;;;7.60;4.27;;;;;;;;;;4993983;28;20972;-62
2023/10/06 04:53:06;;;;;;;4.80;3.80;;;;;;;;;;4994228;28;20779;-61
2023/10/06 04:55:37;;;;;;;7.13;4.97;;;;;;;;;;4993875;28;20417;-62
2023/10/06 04:58:03;;;;;;;5.33;3.83;;;;;;;;;;4993892;28;20425;-62
2023/10/06 05:00:29;;;;;;;6.90;5.40;;;;;;;;;;4994078;28;20418;-62
2023/10/06 05:02:55;;;;;;;4.70;4.30;;;;;;;;;;4993977;28;20835;-62
2023/10/06 05:05:21;;;;;;;5.20;4.80;;;;;;;;;;4994066;28;20446;-66
2023/10/06 05:07:48;;;;;;;5.33;4.90;;;;;;;;;;4993009;28;20418;-63
2023/10/06 05:10:16;;;;;;;5.17;4.77;;;;;;;;;;4994256;28;20417;-61
2023/10/06 05:12:42;;;;;;;5.70;5.20;;;;;;;;;;4993473;28;20448;-63
2023/10/06 05:15:09;;;;;;;13.20;6.10;;;;;;;;;;4993589;28;20434;-63
2023/10/06 05:17:36;;;;;;;3.90;3.70;;;;;;;;;;4993736;28;20442;-62
2023/10/06 05:20:03;;;;;;;31.13;24.00;;;;;;;;;;4993433;28;20445;-61
2023/10/06 05:22:29;;;;;;;12.80;9.77;;;;;;;;;;4993960;28;20421;-61
2023/10/06 05:24:55;;;;;;;8.80;7.90;;;;;;;;;;4993129;28;20444;-62
2023/10/06 05:27:22;;;;;;;10.90;5.27;;;;;;;;;;4993260;28;20425;-62
2023/10/06 05:29:50;;;;;;;6.10;5.50;;;;;;;;;;4992939;28;20567;-62
2023/10/06 05:32:17;;;;;;;7.00;6.30;;;;;;;;;;4993100;28;20413;-62
2023/10/06 05:34:43;;;;;;;5.83;5.23;;;;;;;;;;4992106;28;20425;-62
2023/10/06 05:37:09;;;;;;;4.97;4.60;;;;;;;;;;4993343;28;20422;-61
2023/10/06 05:39:36;;;;;;;9.17;5.53;;;;;;;;;;4993206;28;20759;-62
2023/10/06 05:42:05;;;;;;;6.93;6.33;;;;;;;;;;4993381;28;20422;-63
2023/10/06 05:44:36;;;;;;;6.97;5.70;;;;;;;;;;4993130;28;20460;-61
2023/10/06 05:47:08;;;;;;;16.43;13.10;;;;;;;;;;4993127;28;20421;-62
2023/10/06 05:49:35;;;;;;;50.90;37.50;;;;;;;;;;4992944;28;20474;-62
2023/10/06 05:52:03;;;;;;;23.87;16.03;;;;;;;;;;4992733;28;20410;-62
2023/10/06 05:54:29;;;;;;;5.93;5.43;;;;;;;;;;4991886;28;20440;-62
2023/10/06 05:56:55;;;;;;;5.80;5.30;;;;;;;;;;4992945;28;20521;-61
2023/10/06 05:59:21;;;;;;;6.30;5.27;;;;;;;;;;4992488;28;20508;-64
2023/10/06 06:01:56;;;;;;;6.10;5.50;;;;;;;;;;4993572;28;20557;-61
2023/10/06 06:04:27;;;;;;;5.57;5.17;;;;;;;;;;4993675;28;20436;-62
2023/10/06 06:06:57;;;;;;;7.90;6.70;;;;;;;;;;4991615;28;20429;-62
2023/10/06 06:09:33;;;;;;;8.60;7.17;;;;;;;;;;5001079;28;20966;-61
2023/10/06 06:12:02;;;;;;;7.67;6.80;;;;;;;;;;4999048;28;20436;-61
2023/10/06 06:14:28;;;;;;;7.67;6.97;;;;;;;;;;4999572;28;20406;-61
2023/10/06 06:16:55;;;;;;;10.20;6.23;;;;;;;;;;5006461;28;20440;-62
2023/10/06 06:19:21;;;;;;;5.53;5.10;;;;;;;;;;5012467;28;20420;-61
2023/10/06 06:21:48;;;;;;;6.90;5.30;;;;;;;;;;5012025;28;20447;-61
2023/10/06 06:24:20;;;;;;;9.03;6.10;;;;;;;;;;5012650;28;20743;-63
2023/10/06 06:26:46;;;;;;;8.10;5.20;;;;;;;;;;5002545;28;20464;-63
2023/10/06 06:29:12;;;;;;;9.80;6.00;;;;;;;;;;4991842;28;20479;-60
2023/10/06 06:31:38;;;;;;;6.20;4.80;;;;;;;;;;4991641;28;20437;-61
2023/10/06 06:34:07;;;;;;;6.63;4.93;;;;;;;;;;4991910;28;20455;-77
2023/10/06 06:36:33;;;;;;;8.30;5.80;;;;;;;;;;4991809;28;20417;-60
2023/10/06 06:38:59;;;;;;;5.80;5.30;;;;;;;;;;4991634;28;20932;-60
2023/10/06 06:41:25;;;;;;;5.80;5.30;;;;;;;;;;4991907;28;20452;-61
2023/10/06 06:43:58;;;;;;;6.10;5.60;;;;;;;;;;4995064;28;20417;-61
2023/10/06 06:46:24;;;;;;;7.53;5.50;;;;;;;;;;4996309;28;20417;-64
2023/10/06 06:48:51;;;;;;;6.40;5.90;;;;;;;;;;4995317;28;20465;-64
2023/10/06 06:51:18;;;;;;;18.63;7.63;;;;;;;;;;4995126;28;20544;-60
2023/10/06 06:53:47;;;;;;;25.90;6.57;;;;;;;;;;4995971;28;20409;-62
2023/10/06 06:56:20;;;;;;;12.03;5.80;;;;;;;;;;4994266;28;20918;-63
2023/10/06 06:58:48;;;;;;;8.07;4.97;;;;;;;;;;4999679;28;20418;-63
2023/10/06 07:01:16;;;;;;;10.30;5.57;;;;;;;;;;4995086;28;20445;-63
2023/10/06 07:03:44;;;;;;;11.30;5.67;;;;;;;;;;4994811;28;20838;-62
2023/10/06 07:06:16;;;;;;;6.07;5.50;;;;;;;;;;4994769;28;20433;-62
2023/10/06 07:08:44;;;;;;;5.90;5.40;;;;;;;;;;4993627;28;20504;-62
2023/10/06 07:11:10;;;;;;;10.00;5.77;;;;;;;;;;4994915;28;20419;-62
2023/10/06 07:13:37;;;;;;;10.43;6.13;;;;;;;;;;4994603;28;20792;-62
2023/10/06 07:16:05;;;;;;;15.27;6.27;;;;;;;;;;4994716;28;20411;-64
2023/10/06 07:18:31;;;;;;;8.73;6.03;;;;;;;;;;4994595;28;20509;-62
2023/10/06 07:20:57;;;;;;;9.77;6.93;;;;;;;;;;4995331;28;20444;-62
2023/10/06 07:23:23;;;;;;;8.70;6.07;;;;;;;;;;4994854;28;20428;-62
2023/10/06 07:25:49;;;;;;;10.30;6.17;;;;;;;;;;4980705;28;20461;-62
2023/10/06 07:28:15;;;;;;;14.80;6.70;;;;;;;;;;5013896;28;20550;-62
2023/10/06 07:30:41;;;;;;;9.93;6.70;;;;;;;;;;5013578;28;20825;-62
2023/10/06 07:33:07;;;;;;;11.40;5.90;;;;;;;;;;5013731;28;20427;-62
2023/10/06 07:35:41;;;;;;;10.90;6.00;;;;;;;;;;5004189;28;20506;-62
2023/10/06 07:38:18;;;;;;;21.47;6.80;;;;;;;;;;4993994;28;20435;-61
2023/10/06 07:40:44;;;;;;;13.63;6.10;;;;;;;;;;4994259;28;20417;-60
2023/10/06 07:43:10;;;;;;;6.40;5.80;;;;;;;;;;4994083;28;20794;-59
2023/10/06 07:45:36;;;;;;;8.50;7.30;;;;;;;;;;4994025;28;20429;-62
2023/10/06 07:48:05;;;;;;;8.90;6.93;;;;;;;;;;4993741;28;20434;-61
2023/10/06 07:50:33;;;;;;;10.53;7.87;;;;;;;;;;4994333;28;20472;-61
2023/10/06 07:53:00;;;;;;;11.03;7.20;;;;;;;;;;4993321;28;20436;-61
2023/10/06 07:55:30;;;;;;;15.97;7.67;;;;;;;;;;5002494;28;20471;-61
2023/10/06 07:57:58;;;;;;;9.60;7.50;;;;;;;;;;5012348;28;20432;-63
2023/10/06 08:00:32;;;;;;;18.03;9.00;;;;;;;;;;5013985;28;20540;-62
2023/10/06 08:03:03;;;;;;;10.00;6.93;;;;;;;;;;5013652;28;20478;-61
2023/10/06 08:05:29;;;;;;;8.97;7.60;;;;;;;;;;5013265;28;20413;-62
2023/10/06 08:07:55;;;;;;;52.43;28.93;;;;;;;;;;5013385;28;20416;-61
2023/10/06 08:10:21;;;;;;;14.97;7.73;;;;;;;;;;5012759;28;20414;-62
2023/10/06 08:12:51;;;;;;;17.53;9.10;;;;;;;;;;5012615;28;20423;-62
2023/10/06 08:15:21;;;;;;;66.73;33.17;;;;;;;;;;5013171;28;20496;-62
2023/10/06 08:17:50;;;;;;;29.37;19.20;;;;;;;;;;5012933;28;20409;-62
2023/10/06 08:20:16;;;;;;;153.63;84.87;;;;;;;;;;5013441;28;20510;-62
2023/10/06 08:22:46;;;;;;;17.10;10.77;;;;;;;;;;5013215;28;20421;-62
2023/10/06 08:25:13;;;;;;;10.63;7.07;;;;;;;;;;4992895;28;20470;-62
2023/10/06 08:27:39;;;;;;;10.50;6.87;;;;;;;;;;4972762;28;20414;-62
2023/10/06 08:30:19;;;;;;;10.50;7.50;;;;;;;;;;4973732;28;20836;-62
2023/10/06 08:32:45;;;;;;;10.60;7.37;;;;;;;;;;4973190;28;20436;-62
2023/10/06 08:35:14;;;;;;;12.13;7.20;;;;;;;;;;4973954;28;20505;-63
2023/10/06 08:37:44;;;;;;;12.80;8.00;;;;;;;;;;4972568;28;20509;-61
2023/10/06 08:40:16;;;;;;;8.90;7.00;;;;;;;;;;4973991;28;20502;-62
2023/10/06 08:42:44;;;;;;;9.63;7.17;;;;;;;;;;4973769;28;20433;-62
2023/10/06 08:45:11;;;;;;;13.83;7.23;;;;;;;;;;4972228;28;20415;-62
2023/10/06 08:47:41;;;;;;;14.37;8.00;;;;;;;;;;4973601;28;20420;-62
2023/10/06 08:50:07;;;;;;;8.73;6.80;;;;;;;;;;4972271;28;20483;-62
2023/10/06 08:52:34;;;;;;;16.00;7.73;;;;;;;;;;4973703;28;20413;-62
2023/10/06 08:55:00;;;;;;;9.83;7.20;;;;;;;;;;4973601;28;20432;-63
2023/10/06 08:57:29;;;;;;;9.63;7.07;;;;;;;;;;4973262;28;20421;-62
2023/10/06 08:59:59;;;;;;;12.23;7.40;;;;;;;;;;4971527;28;20948;-63
2023/10/06 09:02:25;;;;;;;9.30;6.93;;;;;;;;;;4973966;28;20468;-62
2023/10/06 09:04:54;;;;;;;9.43;7.20;;;;;;;;;;4973191;28;20849;-63
2023/10/06 09:07:21;;;;;;;6.77;6.17;;;;;;;;;;4972490;28;20950;-63
2023/10/06 09:09:47;;;;;;;15.50;6.57;;;;;;;;;;4973527;28;20484;-62
2023/10/06 09:12:23;;;;;;;8.23;5.63;;;;;;;;;;4973720;28;20511;-62
2023/10/06 09:14:54;;;;;;;9.80;6.70;;;;;;;;;;4973860;28;20805;-62
2023/10/06 09:17:33;;;;;;;8.07;5.73;;;;;;;;;;4974110;28;20452;-62
2023/10/06 09:19:59;;;;;;;6.37;5.77;;;;;;;;;;4974125;28;20477;-62
2023/10/06 09:22:29;;;;;;;12.80;6.70;;;;;;;;;;4972935;28;20508;-62
2023/10/06 09:25:10;;;;;;;6.20;5.57;;;;;;;;;;4973977;28;20443;-62
2023/10/06 09:27:37;;;;;;;6.63;5.77;;;;;;;;;;4973677;28;20815;-62
2023/10/06 09:30:10;;;;;;;11.10;6.07;;;;;;;;;;4972575;28;20564;-62
2023/10/06 09:32:36;;;;;;;9.83;5.60;;;;;;;;;;4972138;28;20530;-62
2023/10/06 09:35:19;;;;;;;6.70;5.77;;;;;;;;;;4973750;28;20428;-63
2023/10/06 09:37:45;;;;;;;7.30;5.83;;;;;;;;;;4973652;28;20414;-62
2023/10/06 09:40:20;;;;;;;6.83;5.33;;;;;;;;;;4973765;28;20434;-62
2023/10/06 09:42:47;;;;;;;8.40;5.30;;;;;;;;;;4973850;28;20904;-62
2023/10/06 09:45:18;;;;;;;11.37;5.83;;;;;;;;;;4973945;28;20451;-62
2023/10/06 09:47:51;;;;;;;9.30;5.57;;;;;;;;;;4973820;28;20687;-62
2023/10/06 09:50:21;;;;;;;5.23;4.80;;;;;;;;;;4972506;28;20468;-62
2023/10/06 09:52:48;;;;;;;7.67;4.80;;;;;;;;;;4973915;28;20496;-62
2023/10/06 09:55:18;;;;;;;7.43;5.40;;;;;;;;;;4973461;28;20414;-62
2023/10/06 09:57:48;;;;;;;8.00;5.13;;;;;;;;;;4974020;28;20400;-62
2023/10/06 10:00:17;;;;;;;6.83;4.70;;;;;;;;;;4973504;28;20424;-62
2023/10/06 10:02:47;;;;;;;8.47;4.93;;;;;;;;;;4973268;28;20864;-62
2023/10/06 10:05:14;;;;;;;6.00;4.60;;;;;;;;;;4973633;28;20503;-62
2023/10/06 10:07:40;;;;;;;11.47;5.70;;;;;;;;;;4973188;28;20933;-62
2023/10/06 10:10:10;;;;;;;15.10;5.03;;;;;;;;;;4973063;28;20470;-62
2023/10/06 10:12:37;;;;;;;5.13;4.53;;;;;;;;;;4973070;28;20440;-63
2023/10/06 10:15:21;;;;;;;5.60;5.00;;;;;;;;;;4972637;28;20802;-62
2023/10/06 10:17:59;;;;;;;9.47;4.43;;;;;;;;;;4973105;28;20442;-63
2023/10/06 10:20:26;;;;;;;4.50;4.07;;;;;;;;;;4973155;28;20774;-62
2023/10/06 10:22:55;;;;;;;4.10;3.80;;;;;;;;;;4972994;28;20830;-63
2023/10/06 10:25:23;;;;;;;5.17;4.67;;;;;;;;;;4973244;28;20431;-63
2023/10/06 10:28:08;;;;;;;6.23;4.73;;;;;;;;;;4972545;28;20427;-63
2023/10/06 10:30:56;;;;;;;5.17;4.77;;;;;;;;;;4973112;28;20442;-63
2023/10/06 10:33:25;;;;;;;4.47;4.07;;;;;;;;;;4972889;28;20415;-63
2023/10/06 10:36:11;;;;;;;4.63;4.33;;;;;;;;;;4973043;28;20509;-63
2023/10/06 10:38:37;;;;;;;4.50;4.10;;;;;;;;;;4972826;28;20457;-64
2023/10/06 10:41:08;;;;;;;4.93;4.47;;;;;;;;;;4973120;28;20435;-63
2023/10/06 10:43:41;;;;;;;4.70;4.33;;;;;;;;;;4971942;28;20414;-63
2023/10/06 10:46:12;;;;;;;5.97;4.10;;;;;;;;;;4972866;28;20403;-63
2023/10/06 10:48:50;;;;;;;6.80;4.67;;;;;;;;;;4972909;28;20548;-63
2023/10/06 10:51:21;;;;;;;5.17;4.60;;;;;;;;;;4971632;28;20481;-64
2023/10/06 10:53:49;;;;;;;4.90;4.43;;;;;;;;;;4972684;28;20419;-64
2023/10/06 10:56:36;;;;;;;10.20;4.33;;;;;;;;;;4972693;28;20410;-64
2023/10/06 10:59:03;;;;;;;7.80;7.10;;;;;;;;;;4972834;28;20485;-63
2023/10/06 11:01:38;;;;;;;8.07;4.80;;;;;;;;;;4972988;28;20446;-63
2023/10/06 11:04:14;;;;;;;5.97;4.90;;;;;;;;;;4972776;28;20499;-63
2023/10/06 11:06:40;;;;;;;5.90;4.30;;;;;;;;;;4972770;28;20427;-63
2023/10/06 11:09:29;;;;;;;4.93;4.30;;;;;;;;;;4972956;28;20557;-63
2023/10/06 11:12:00;;;;;;;5.80;3.60;;;;;;;;;;4972809;28;20406;-63
2023/10/06 11:14:30;;;;;;;11.67;4.00;;;;;;;;;;4971541;28;20462;-63
2023/10/06 11:17:07;;;;;;;4.67;4.27;;;;;;;;;;4972136;28;20416;-63
2023/10/06 11:19:36;;;;;;;10.07;4.50;;;;;;;;;;4973067;28;20541;-63
2023/10/06 11:22:29;;;;;;;7.73;4.73;;;;;;;;;;4971161;28;20415;-63
2023/10/06 11:24:59;;;;;;;4.83;4.30;;;;;;;;;;4969939;28;20449;-63
2023/10/06 11:27:28;;;;;;;5.20;4.37;;;;;;;;;;4972725;28;20410;-63
2023/10/06 11:29:59;;;;;;;6.57;4.97;;;;;;;;;;4975292;28;20545;-63
2023/10/06 11:32:28;;;;;;;4.73;3.87;;;;;;;;;;4976201;28;20430;-63
2023/10/06 11:34:54;;;;;;;5.17;4.70;;;;;;;;;;4976134;28;20434;-63
2023/10/06 11:37:24;;;;;;;7.40;4.40;;;;;;;;;;4975876;28;20426;-63
2023/10/06 11:39:53;;;;;;;4.40;4.00;;;;;;;;;;4975857;28;20469;-63
2023/10/06 11:42:25;;;;;;;6.63;4.47;;;;;;;;;;4974641;28;21045;-63
2023/10/06 11:44:54;;;;;;;4.83;4.43;;;;;;;;;;4975792;28;20795;-63
2023/10/06 11:47:21;;;;;;;5.90;4.43;;;;;;;;;;4975522;28;20451;-62
2023/10/06 11:49:54;;;;;;;7.57;4.30;;;;;;;;;;4975458;28;20473;-63
2023/10/06 11:52:20;;;;;;;6.10;4.03;;;;;;;;;;4975518;28;20437;-63
2023/10/06 11:54:46;;;;;;;5.20;4.20;;;;;;;;;;4975930;28;20398;-62
2023/10/06 11:57:15;;;;;;;4.50;4.20;;;;;;;;;;4974606;28;20417;-62
2023/10/06 11:59:48;;;;;;;9.00;4.83;;;;;;;;;;4976003;28;20410;-63
2023/10/06 12:02:15;;;;;;;11.40;6.30;;;;;;;;;;4975538;28;20941;-63
2023/10/06 12:04:41;;;;;;;5.10;4.70;;;;;;;;;;4975640;28;20916;-63
2023/10/06 12:07:09;;;;;;;7.33;4.60;;;;;;;;;;4975500;28;20401;-62
2023/10/06 12:09:35;;;;;;;5.33;4.80;;;;;;;;;;4975182;28;20472;-62
2023/10/06 12:12:03;;;;;;;4.57;4.27;;;;;;;;;;4973761;28;20526;-62
2023/10/06 12:14:31;;;;;;;4.30;3.57;;;;;;;;;;4975351;28;20422;-62
2023/10/06 12:16:57;;;;;;;5.03;3.70;;;;;;;;;;4975370;28;20431;-62
2023/10/06 12:19:26;;;;;;;7.70;3.87;;;;;;;;;;4975359;28;20918;-62
2023/10/06 12:21:52;;;;;;;5.40;4.20;;;;;;;;;;4973489;28;20933;-62
2023/10/06 12:24:18;;;;;;;6.00;4.17;;;;;;;;;;4975261;28;20425;-62
2023/10/06 12:26:47;;;;;;;26.70;23.00;;;;;;;;;;4975061;28;20473;-62
2023/10/06 12:29:17;;;;;;;5.40;4.40;;;;;;;;;;4974473;28;20473;-63
2023/10/06 12:31:46;;;;;;;4.67;4.03;;;;;;;;;;4975219;28;20485;-62
2023/10/06 12:34:15;;;;;;;4.50;4.10;;;;;;;;;;4975118;28;20460;-62
2023/10/06 12:36:47;;;;;;;5.60;4.13;;;;;;;;;;4974893;28;20433;-63
2023/10/06 12:39:15;;;;;;;9.37;5.10;;;;;;;;;;4973768;28;20807;-63
2023/10/06 12:41:46;;;;;;;6.43;4.80;;;;;;;;;;4974737;28;20417;-63
2023/10/06 12:44:12;;;;;;;5.73;4.03;;;;;;;;;;4974512;28;20501;-63
2023/10/06 12:46:38;;;;;;;3.90;3.57;;;;;;;;;;4974857;28;20418;-63
2023/10/06 12:49:06;;;;;;;7.03;4.47;;;;;;;;;;4974361;28;20477;-62
2023/10/06 12:51:32;;;;;;;6.07;4.60;;;;;;;;;;4974693;28;20387;-63
2023/10/06 12:54:00;;;;;;;7.23;4.43;;;;;;;;;;4974440;28;20887;-63
2023/10/06 12:56:28;;;;;;;8.43;4.60;;;;;;;;;;4975029;28;20426;-62
2023/10/06 12:58:56;;;;;;;5.90;4.37;;;;;;;;;;4974506;28;20522;-63
2023/10/06 13:01:25;;;;;;;6.83;4.00;;;;;;;;;;4974249;28;20430;-62
2023/10/06 13:03:56;;;;;;;4.70;4.20;;;;;;;;;;4974493;28;20793;-62
2023/10/06 13:06:22;;;;;;;6.43;4.17;;;;;;;;;;4973962;28;20502;-62
2023/10/06 13:08:51;;;;;;;3.67;3.47;;;;;;;;;;4974443;28;20465;-62
2023/10/06 13:11:18;;;;;;;5.73;4.50;;;;;;;;;;4974269;28;20467;-63
2023/10/06 13:13:49;;;;;;;4.90;4.40;;;;;;;;;;4974330;28;20488;-62
2023/10/06 13:16:15;;;;;;;7.27;4.93;;;;;;;;;;4974498;28;20433;-62
2023/10/06 13:18:41;;;;;;;8.87;4.23;;;;;;;;;;4973809;28;20794;-63
2023/10/06 13:21:07;;;;;;;9.90;4.40;;;;;;;;;;4973880;28;20443;-62
2023/10/06 13:23:34;;;;;;;6.67;4.53;;;;;;;;;;4974152;28;20929;-62
2023/10/06 13:26:00;;;;;;;5.67;4.80;;;;;;;;;;4974012;28;20621;-62
2023/10/06 13:28:28;;;;;;;5.20;4.60;;;;;;;;;;4973662;28;20470;-61
2023/10/06 13:30:54;;;;;;;6.03;5.33;;;;;;;;;;4973710;28;20415;-62
2023/10/06 13:33:25;;;;;;;9.83;4.77;;;;;;;;;;4973508;28;20429;-62
2023/10/06 13:35:51;;;;;;;4.87;4.47;;;;;;;;;;4973799;28;20461;-62
2023/10/06 13:38:19;;;;;;;4.60;4.30;;;;;;;;;;4973789;28;20452;-62
2023/10/06 13:40:45;;;;;;;6.40;4.60;;;;;;;;;;4973895;28;20418;-62
2023/10/06 13:43:11;;;;;;;11.47;8.27;;;;;;;;;;4973779;28;20438;-62
2023/10/06 13:45:39;;;;;;;7.20;5.20;;;;;;;;;;4973665;28;20520;-62
2023/10/06 13:48:09;;;;;;;11.33;4.27;;;;;;;;;;4973548;28;20419;-62
2023/10/06 13:50:37;;;;;;;10.10;4.30;;;;;;;;;;4973395;28;20423;-62
2023/10/06 13:53:04;;;;;;;4.43;4.03;;;;;;;;;;4973304;28;20429;-62
2023/10/06 13:55:30;;;;;;;9.27;4.90;;;;;;;;;;4973249;28;20441;-62
2023/10/06 13:58:01;;;;;;;5.30;4.80;;;;;;;;;;4973693;28;20413;-62
2023/10/06 14:00:32;;;;;;;5.17;4.13;;;;;;;;;;4973237;28;20441;-62
2023/10/06 14:03:01;;;;;;;14.93;4.97;;;;;;;;;;4973246;28;20435;-62
2023/10/06 14:05:33;;;;;;;6.80;5.07;;;;;;;;;;4972258;28;20415;-62
2023/10/06 14:07:59;;;;;;;11.43;5.30;;;;;;;;;;4973613;28;21024;-62
2023/10/06 14:10:26;;;;;;;7.63;5.20;;;;;;;;;;4973303;28;20427;-62
2023/10/06 14:13:00;;;;;;;5.80;4.73;;;;;;;;;;4973691;28;20437;-62
2023/10/06 14:15:30;;;;;;;6.90;4.60;;;;;;;;;;4973351;28;20458;-62
2023/10/06 14:18:07;;;;;;;4.83;4.43;;;;;;;;;;4973343;28;20418;-62
2023/10/06 14:20:36;;;;;;;8.27;5.47;;;;;;;;;;4973432;28;20415;-63
2023/10/06 14:23:02;;;;;;;6.73;5.30;;;;;;;;;;4973437;28;20444;-62
2023/10/06 14:25:29;;;;;;;7.03;4.77;;;;;;;;;;5005542;23;20536;-62
2023/10/06 14:28:00;;;;;;;7.03;5.13;;;;;;;;;;4992389;28;20473;-62
2023/10/06 14:30:28;;;;;;;8.50;5.30;;;;;;;;;;4992377;28;20855;-62
2023/10/06 14:35:50;;;;;;;6.37;5.40;;;;;;;;;;4992552;28;20775;-62
2023/10/06 14:46:36;;;;;;;9.93;5.40;;;;;;;;;;4992583;28;20414;-62
2023/10/06 14:49:06;;;;;;;7.73;4.70;;;;;;;;;;4992768;28;20486;-62
2023/10/06 14:51:37;;;;;;;9.73;4.70;;;;;;;;;;4992226;28;20939;-62
2023/10/06 14:54:07;;;;;;;5.80;4.40;;;;;;;;;;4992236;28;20405;-62
2023/10/06 14:56:33;;;;;;;6.23;4.77;;;;;;;;;;4992085;28;20413;-62
2023/10/06 14:59:00;;;;;;;6.63;3.83;;;;;;;;;;4992453;28;20444;-62
2023/10/06 15:01:26;;;;;;;18.37;16.37;;;;;;;;;;4991811;28;20413;-62
2023/10/06 15:03:52;;;;;;;5.87;4.80;;;;;;;;;;4994028;28;20445;-62